sensor_id;sensor_type;location;lat;lon;timestamp;P1;durP1;ratioP1;P2;durP2;ratioP2
5507;SDS011;2776;51.046;6.772;2024-03-29T00:01:14;0.33;;;0.30;;
5507;SDS011;2776;51.046;6.772;2024-03-29T00:03:40;1.20;;;0.57;;
5507;SDS011;2776;51.046;6.772;2024-03-29T00:06:06;0.10;;;0.10;;
5507;SDS011;2776;51.046;6.772;2024-03-29T00:08:31;0.20;;;0.20;;
5507;SDS011;2776;51.046;6.772;2024-03-29T00:10:57;0.27;;;0.27;;
5507;SDS011;2776;51.046;6.772;2024-03-29T00:13:23;0.83;;;0.40;;
5507;SDS011;2776;51.046;6.772;2024-03-29T00:15:49;2.37;;;0.53;;
5507;SDS011;2776;51.046;6.772;2024-03-29T00:18:16;3.53;;;0.73;;
5507;SDS011;2776;51.046;6.772;2024-03-29T00:20:42;0.50;;;0.50;;
5507;SDS011;2776;51.046;6.772;2024-03-29T00:23:08;2.23;;;0.30;;
5507;SDS011;2776;51.046;6.772;2024-03-29T00:25:33;0.30;;;0.30;;
5507;SDS011;2776;51.046;6.772;2024-03-29T00:27:59;1.53;;;0.40;;
5507;SDS011;2776;51.046;6.772;2024-03-29T00:30:25;0.27;;;0.27;;
5507;SDS011;2776;51.046;6.772;2024-03-29T00:32:51;6.93;;;0.90;;
5507;SDS011;2776;51.046;6.772;2024-03-29T00:35:18;3.20;;;0.60;;
5507;SDS011;2776;51.046;6.772;2024-03-29T00:37:44;0.53;;;0.47;;
5507;SDS011;2776;51.046;6.772;2024-03-29T00:40:10;1.90;;;0.60;;
5507;SDS011;2776;51.046;6.772;2024-03-29T00:42:36;2.47;;;0.90;;
5507;SDS011;2776;51.046;6.772;2024-03-29T00:45:02;1.97;;;0.90;;
5507;SDS011;2776;51.046;6.772;2024-03-29T00:47:29;1.70;;;1.20;;
5507;SDS011;2776;51.046;6.772;2024-03-29T00:49:55;4.07;;;1.27;;
5507;SDS011;2776;51.046;6.772;2024-03-29T00:52:22;1.63;;;0.90;;
5507;SDS011;2776;51.046;6.772;2024-03-29T00:54:48;1.83;;;1.03;;
5507;SDS011;2776;51.046;6.772;2024-03-29T00:57:13;1.97;;;1.30;;
5507;SDS011;2776;51.046;6.772;2024-03-29T00:59:39;1.80;;;1.20;;
5507;SDS011;2776;51.046;6.772;2024-03-29T01:02:05;1.47;;;1.23;;
5507;SDS011;2776;51.046;6.772;2024-03-29T01:04:31;2.63;;;1.77;;
5507;SDS011;2776;51.046;6.772;2024-03-29T01:06:57;2.93;;;2.00;;
5507;SDS011;2776;51.046;6.772;2024-03-29T01:09:24;3.77;;;2.00;;
5507;SDS011;2776;51.046;6.772;2024-03-29T01:11:50;4.00;;;2.00;;
5507;SDS011;2776;51.046;6.772;2024-03-29T01:14:16;2.77;;;1.27;;
5507;SDS011;2776;51.046;6.772;2024-03-29T01:16:42;3.50;;;1.70;;
5507;SDS011;2776;51.046;6.772;2024-03-29T01:19:08;1.30;;;0.90;;
5507;SDS011;2776;51.046;6.772;2024-03-29T01:21:34;2.20;;;0.90;;
5507;SDS011;2776;51.046;6.772;2024-03-29T01:24:00;1.03;;;0.70;;
5507;SDS011;2776;51.046;6.772;2024-03-29T01:26:27;1.73;;;0.70;;
5507;SDS011;2776;51.046;6.772;2024-03-29T01:28:53;3.93;;;0.77;;
5507;SDS011;2776;51.046;6.772;2024-03-29T01:31:19;1.23;;;0.70;;
5507;SDS011;2776;51.046;6.772;2024-03-29T01:33:45;3.53;;;0.67;;
5507;SDS011;2776;51.046;6.772;2024-03-29T01:36:11;1.80;;;0.50;;
5507;SDS011;2776;51.046;6.772;2024-03-29T01:38:36;0.80;;;0.37;;
5507;SDS011;2776;51.046;6.772;2024-03-29T01:41:02;1.90;;;0.87;;
5507;SDS011;2776;51.046;6.772;2024-03-29T01:43:30;3.30;;;0.50;;
5507;SDS011;2776;51.046;6.772;2024-03-29T01:45:56;1.00;;;0.27;;
5507;SDS011;2776;51.046;6.772;2024-03-29T01:48:23;2.83;;;0.83;;
5507;SDS011;2776;51.046;6.772;2024-03-29T01:50:54;0.90;;;0.40;;
5507;SDS011;2776;51.046;6.772;2024-03-29T01:53:23;0.43;;;0.23;;
5507;SDS011;2776;51.046;6.772;2024-03-29T01:55:51;2.43;;;0.53;;
5507;SDS011;2776;51.046;6.772;2024-03-29T01:58:18;1.47;;;0.50;;
5507;SDS011;2776;51.046;6.772;2024-03-29T02:00:51;2.00;;;0.43;;
5507;SDS011;2776;51.046;6.772;2024-03-29T02:03:19;1.10;;;0.40;;
5507;SDS011;2776;51.046;6.772;2024-03-29T02:05:46;0.83;;;0.40;;
5507;SDS011;2776;51.046;6.772;2024-03-29T02:08:14;1.70;;;0.30;;
5507;SDS011;2776;51.046;6.772;2024-03-29T02:10:41;0.40;;;0.40;;
5507;SDS011;2776;51.046;6.772;2024-03-29T02:13:09;0.30;;;0.30;;
5507;SDS011;2776;51.046;6.772;2024-03-29T02:15:36;0.50;;;0.20;;
5507;SDS011;2776;51.046;6.772;2024-03-29T02:18:04;0.30;;;0.30;;
5507;SDS011;2776;51.046;6.772;2024-03-29T02:20:31;0.30;;;0.23;;
5507;SDS011;2776;51.046;6.772;2024-03-29T02:23:00;0.30;;;0.30;;
5507;SDS011;2776;51.046;6.772;2024-03-29T02:25:33;1.03;;;0.57;;
5507;SDS011;2776;51.046;6.772;2024-03-29T02:28:00;1.30;;;0.30;;
5507;SDS011;2776;51.046;6.772;2024-03-29T02:30:28;1.90;;;0.47;;
5507;SDS011;2776;51.046;6.772;2024-03-29T02:32:56;0.63;;;0.43;;
5507;SDS011;2776;51.046;6.772;2024-03-29T02:35:23;1.17;;;0.40;;
5507;SDS011;2776;51.046;6.772;2024-03-29T02:37:50;3.40;;;0.53;;
5507;SDS011;2776;51.046;6.772;2024-03-29T02:40:17;1.80;;;0.70;;
5507;SDS011;2776;51.046;6.772;2024-03-29T02:42:45;2.97;;;0.60;;
5507;SDS011;2776;51.046;6.772;2024-03-29T02:45:12;0.60;;;0.50;;
5507;SDS011;2776;51.046;6.772;2024-03-29T02:47:38;0.97;;;0.40;;
5507;SDS011;2776;51.046;6.772;2024-03-29T02:50:05;1.63;;;0.40;;
5507;SDS011;2776;51.046;6.772;2024-03-29T02:52:34;0.57;;;0.40;;
5507;SDS011;2776;51.046;6.772;2024-03-29T02:55:00;0.30;;;0.30;;
5507;SDS011;2776;51.046;6.772;2024-03-29T02:57:26;0.40;;;0.40;;
5507;SDS011;2776;51.046;6.772;2024-03-29T02:59:54;0.33;;;0.33;;
5507;SDS011;2776;51.046;6.772;2024-03-29T03:02:20;0.47;;;0.30;;
5507;SDS011;2776;51.046;6.772;2024-03-29T03:04:47;0.50;;;0.50;;
5507;SDS011;2776;51.046;6.772;2024-03-29T03:07:12;0.30;;;0.30;;
5507;SDS011;2776;51.046;6.772;2024-03-29T03:09:56;0.50;;;0.40;;
5507;SDS011;2776;51.046;6.772;2024-03-29T03:12:40;1.63;;;0.70;;
5507;SDS011;2776;51.046;6.772;2024-03-29T03:15:09;0.40;;;0.40;;
5507;SDS011;2776;51.046;6.772;2024-03-29T03:17:35;0.63;;;0.40;;
5507;SDS011;2776;51.046;6.772;2024-03-29T03:20:02;0.47;;;0.47;;
5507;SDS011;2776;51.046;6.772;2024-03-29T03:22:30;4.70;;;0.57;;
5507;SDS011;2776;51.046;6.772;2024-03-29T03:24:56;1.00;;;0.40;;
5507;SDS011;2776;51.046;6.772;2024-03-29T03:27:22;0.40;;;0.20;;
5507;SDS011;2776;51.046;6.772;2024-03-29T03:29:49;0.47;;;0.47;;
5507;SDS011;2776;51.046;6.772;2024-03-29T03:32:17;0.93;;;0.40;;
5507;SDS011;2776;51.046;6.772;2024-03-29T03:34:44;0.77;;;0.50;;
5507;SDS011;2776;51.046;6.772;2024-03-29T03:37:10;0.40;;;0.30;;
5507;SDS011;2776;51.046;6.772;2024-03-29T03:39:37;0.40;;;0.40;;
5507;SDS011;2776;51.046;6.772;2024-03-29T03:42:03;0.37;;;0.37;;
5507;SDS011;2776;51.046;6.772;2024-03-29T03:44:30;1.33;;;0.70;;
5507;SDS011;2776;51.046;6.772;2024-03-29T03:46:56;10.10;;;0.50;;
5507;SDS011;2776;51.046;6.772;2024-03-29T03:49:24;0.77;;;0.40;;
5507;SDS011;2776;51.046;6.772;2024-03-29T03:51:50;0.53;;;0.40;;
5507;SDS011;2776;51.046;6.772;2024-03-29T03:54:17;2.97;;;0.60;;
5507;SDS011;2776;51.046;6.772;2024-03-29T03:56:42;2.30;;;0.50;;
5507;SDS011;2776;51.046;6.772;2024-03-29T03:59:09;0.40;;;0.40;;
5507;SDS011;2776;51.046;6.772;2024-03-29T04:01:35;1.20;;;0.40;;
5507;SDS011;2776;51.046;6.772;2024-03-29T04:04:02;2.73;;;0.50;;
5507;SDS011;2776;51.046;6.772;2024-03-29T04:06:29;0.87;;;0.30;;
5507;SDS011;2776;51.046;6.772;2024-03-29T04:08:55;0.67;;;0.60;;
5507;SDS011;2776;51.046;6.772;2024-03-29T04:11:21;3.10;;;0.53;;
5507;SDS011;2776;51.046;6.772;2024-03-29T04:13:48;0.83;;;0.57;;
5507;SDS011;2776;51.046;6.772;2024-03-29T04:16:14;1.83;;;0.50;;
5507;SDS011;2776;51.046;6.772;2024-03-29T04:18:40;0.97;;;0.50;;
5507;SDS011;2776;51.046;6.772;2024-03-29T04:21:06;4.63;;;0.70;;
5507;SDS011;2776;51.046;6.772;2024-03-29T04:23:34;0.40;;;0.37;;
5507;SDS011;2776;51.046;6.772;2024-03-29T04:26:01;0.47;;;0.27;;
5507;SDS011;2776;51.046;6.772;2024-03-29T04:28:28;0.60;;;0.40;;
5507;SDS011;2776;51.046;6.772;2024-03-29T04:30:54;0.90;;;0.40;;
5507;SDS011;2776;51.046;6.772;2024-03-29T04:33:22;1.23;;;0.57;;
5507;SDS011;2776;51.046;6.772;2024-03-29T04:35:52;2.93;;;0.40;;
5507;SDS011;2776;51.046;6.772;2024-03-29T04:38:20;0.50;;;0.30;;
5507;SDS011;2776;51.046;6.772;2024-03-29T04:40:49;0.30;;;0.30;;
5507;SDS011;2776;51.046;6.772;2024-03-29T04:43:16;1.20;;;0.70;;
5507;SDS011;2776;51.046;6.772;2024-03-29T04:45:43;0.50;;;0.30;;
5507;SDS011;2776;51.046;6.772;2024-03-29T04:48:10;2.93;;;0.93;;
5507;SDS011;2776;51.046;6.772;2024-03-29T04:50:37;0.60;;;0.30;;
5507;SDS011;2776;51.046;6.772;2024-03-29T04:53:04;1.40;;;0.60;;
5507;SDS011;2776;51.046;6.772;2024-03-29T04:55:30;1.20;;;0.40;;
5507;SDS011;2776;51.046;6.772;2024-03-29T04:57:59;0.93;;;0.40;;
5507;SDS011;2776;51.046;6.772;2024-03-29T05:00:25;1.60;;;0.30;;
5507;SDS011;2776;51.046;6.772;2024-03-29T05:02:52;0.50;;;0.50;;
5507;SDS011;2776;51.046;6.772;2024-03-29T05:05:19;3.87;;;0.80;;
5507;SDS011;2776;51.046;6.772;2024-03-29T05:07:46;0.30;;;0.30;;
5507;SDS011;2776;51.046;6.772;2024-03-29T05:10:12;0.40;;;0.40;;
5507;SDS011;2776;51.046;6.772;2024-03-29T05:12:40;0.60;;;0.23;;
5507;SDS011;2776;51.046;6.772;2024-03-29T05:15:09;2.80;;;0.47;;
5507;SDS011;2776;51.046;6.772;2024-03-29T05:17:36;1.40;;;0.30;;
5507;SDS011;2776;51.046;6.772;2024-03-29T05:20:03;2.03;;;0.70;;
5507;SDS011;2776;51.046;6.772;2024-03-29T05:22:31;0.60;;;0.40;;
5507;SDS011;2776;51.046;6.772;2024-03-29T05:24:57;0.50;;;0.40;;
5507;SDS011;2776;51.046;6.772;2024-03-29T05:27:24;2.90;;;0.77;;
5507;SDS011;2776;51.046;6.772;2024-03-29T05:29:51;1.03;;;0.50;;
5507;SDS011;2776;51.046;6.772;2024-03-29T05:32:19;1.47;;;0.60;;
5507;SDS011;2776;51.046;6.772;2024-03-29T05:34:45;0.47;;;0.37;;
5507;SDS011;2776;51.046;6.772;2024-03-29T05:37:12;1.90;;;0.50;;
5507;SDS011;2776;51.046;6.772;2024-03-29T05:39:41;0.50;;;0.50;;
5507;SDS011;2776;51.046;6.772;2024-03-29T05:42:08;0.70;;;0.40;;
5507;SDS011;2776;51.046;6.772;2024-03-29T05:44:34;0.30;;;0.30;;
5507;SDS011;2776;51.046;6.772;2024-03-29T05:47:02;4.50;;;0.73;;
5507;SDS011;2776;51.046;6.772;2024-03-29T05:49:31;2.83;;;0.47;;
5507;SDS011;2776;51.046;6.772;2024-03-29T05:51:58;1.90;;;0.43;;
5507;SDS011;2776;51.046;6.772;2024-03-29T05:54:25;1.80;;;0.60;;
5507;SDS011;2776;51.046;6.772;2024-03-29T05:56:52;0.40;;;0.40;;
5507;SDS011;2776;51.046;6.772;2024-03-29T05:59:19;1.13;;;0.50;;
5507;SDS011;2776;51.046;6.772;2024-03-29T06:01:46;7.67;;;0.70;;
5507;SDS011;2776;51.046;6.772;2024-03-29T06:04:13;0.47;;;0.47;;
5507;SDS011;2776;51.046;6.772;2024-03-29T06:06:45;0.30;;;0.30;;
5507;SDS011;2776;51.046;6.772;2024-03-29T06:09:11;0.50;;;0.50;;
5507;SDS011;2776;51.046;6.772;2024-03-29T06:11:38;1.10;;;0.47;;
5507;SDS011;2776;51.046;6.772;2024-03-29T06:14:05;0.50;;;0.50;;
5507;SDS011;2776;51.046;6.772;2024-03-29T06:16:49;0.97;;;0.40;;
5507;SDS011;2776;51.046;6.772;2024-03-29T06:19:33;1.10;;;0.57;;
5507;SDS011;2776;51.046;6.772;2024-03-29T06:22:01;0.50;;;0.40;;
5507;SDS011;2776;51.046;6.772;2024-03-29T06:24:29;0.40;;;0.40;;
5507;SDS011;2776;51.046;6.772;2024-03-29T06:26:57;0.60;;;0.60;;
5507;SDS011;2776;51.046;6.772;2024-03-29T06:29:24;0.67;;;0.30;;
5507;SDS011;2776;51.046;6.772;2024-03-29T06:31:51;1.03;;;0.47;;
5507;SDS011;2776;51.046;6.772;2024-03-29T06:34:17;0.60;;;0.60;;
5507;SDS011;2776;51.046;6.772;2024-03-29T06:36:44;3.03;;;0.47;;
5507;SDS011;2776;51.046;6.772;2024-03-29T06:39:12;1.67;;;0.50;;
5507;SDS011;2776;51.046;6.772;2024-03-29T06:41:39;2.90;;;0.57;;
5507;SDS011;2776;51.046;6.772;2024-03-29T06:44:05;1.73;;;0.73;;
5507;SDS011;2776;51.046;6.772;2024-03-29T06:46:32;2.83;;;0.63;;
5507;SDS011;2776;51.046;6.772;2024-03-29T06:48:59;0.40;;;0.40;;
5507;SDS011;2776;51.046;6.772;2024-03-29T06:51:26;0.87;;;0.87;;
5507;SDS011;2776;51.046;6.772;2024-03-29T06:53:53;0.93;;;0.60;;
5507;SDS011;2776;51.046;6.772;2024-03-29T06:56:21;2.77;;;0.63;;
5507;SDS011;2776;51.046;6.772;2024-03-29T06:58:47;3.00;;;0.70;;
5507;SDS011;2776;51.046;6.772;2024-03-29T07:01:14;0.80;;;0.33;;
5507;SDS011;2776;51.046;6.772;2024-03-29T07:03:41;1.30;;;0.50;;
5507;SDS011;2776;51.046;6.772;2024-03-29T07:06:08;1.20;;;0.70;;
5507;SDS011;2776;51.046;6.772;2024-03-29T07:08:34;2.60;;;0.80;;
5507;SDS011;2776;51.046;6.772;2024-03-29T07:11:01;0.50;;;0.50;;
5507;SDS011;2776;51.046;6.772;2024-03-29T07:13:30;0.70;;;0.40;;
5507;SDS011;2776;51.046;6.772;2024-03-29T07:15:57;0.90;;;0.50;;
5507;SDS011;2776;51.046;6.772;2024-03-29T07:18:24;3.13;;;0.57;;
5507;SDS011;2776;51.046;6.772;2024-03-29T07:20:51;0.73;;;0.47;;
5507;SDS011;2776;51.046;6.772;2024-03-29T07:23:18;0.43;;;0.43;;
5507;SDS011;2776;51.046;6.772;2024-03-29T07:25:45;0.80;;;0.67;;
5507;SDS011;2776;51.046;6.772;2024-03-29T07:28:23;1.10;;;0.60;;
5507;SDS011;2776;51.046;6.772;2024-03-29T07:30:51;1.83;;;0.60;;
5507;SDS011;2776;51.046;6.772;2024-03-29T07:33:19;2.93;;;0.70;;
5507;SDS011;2776;51.046;6.772;2024-03-29T07:35:48;0.77;;;0.70;;
5507;SDS011;2776;51.046;6.772;2024-03-29T07:38:15;1.40;;;0.73;;
5507;SDS011;2776;51.046;6.772;2024-03-29T07:40:42;1.23;;;0.70;;
5507;SDS011;2776;51.046;6.772;2024-03-29T07:43:09;0.60;;;0.60;;
5507;SDS011;2776;51.046;6.772;2024-03-29T07:45:38;2.53;;;1.13;;
5507;SDS011;2776;51.046;6.772;2024-03-29T07:48:09;2.30;;;1.10;;
5507;SDS011;2776;51.046;6.772;2024-03-29T07:50:37;1.47;;;0.70;;
5507;SDS011;2776;51.046;6.772;2024-03-29T07:53:04;2.20;;;0.63;;
5507;SDS011;2776;51.046;6.772;2024-03-29T07:55:30;0.40;;;0.40;;
5507;SDS011;2776;51.046;6.772;2024-03-29T07:57:57;0.60;;;0.40;;
5507;SDS011;2776;51.046;6.772;2024-03-29T08:00:25;0.40;;;0.40;;
5507;SDS011;2776;51.046;6.772;2024-03-29T08:02:52;0.67;;;0.67;;
5507;SDS011;2776;51.046;6.772;2024-03-29T08:05:20;1.17;;;0.40;;
5507;SDS011;2776;51.046;6.772;2024-03-29T08:07:47;0.53;;;0.53;;
5507;SDS011;2776;51.046;6.772;2024-03-29T08:10:13;0.53;;;0.50;;
5507;SDS011;2776;51.046;6.772;2024-03-29T08:12:40;1.33;;;0.53;;
5507;SDS011;2776;51.046;6.772;2024-03-29T08:15:07;0.40;;;0.40;;
5507;SDS011;2776;51.046;6.772;2024-03-29T08:17:34;0.50;;;0.43;;
5507;SDS011;2776;51.046;6.772;2024-03-29T08:20:01;0.30;;;0.30;;
5507;SDS011;2776;51.046;6.772;2024-03-29T08:22:29;0.43;;;0.43;;
5507;SDS011;2776;51.046;6.772;2024-03-29T08:24:58;1.17;;;0.50;;
5507;SDS011;2776;51.046;6.772;2024-03-29T08:27:25;2.00;;;0.50;;
5507;SDS011;2776;51.046;6.772;2024-03-29T08:29:52;2.10;;;0.60;;
5507;SDS011;2776;51.046;6.772;2024-03-29T08:32:18;0.30;;;0.30;;
5507;SDS011;2776;51.046;6.772;2024-03-29T08:34:45;0.83;;;0.40;;
5507;SDS011;2776;51.046;6.772;2024-03-29T08:37:12;0.30;;;0.30;;
5507;SDS011;2776;51.046;6.772;2024-03-29T08:39:40;1.30;;;0.40;;
5507;SDS011;2776;51.046;6.772;2024-03-29T08:42:07;3.37;;;0.30;;
5507;SDS011;2776;51.046;6.772;2024-03-29T08:44:36;0.50;;;0.40;;
5507;SDS011;2776;51.046;6.772;2024-03-29T08:47:04;0.47;;;0.40;;
5507;SDS011;2776;51.046;6.772;2024-03-29T08:49:31;0.47;;;0.30;;
5507;SDS011;2776;51.046;6.772;2024-03-29T08:51:58;0.30;;;0.20;;
5507;SDS011;2776;51.046;6.772;2024-03-29T08:54:29;0.87;;;0.30;;
5507;SDS011;2776;51.046;6.772;2024-03-29T08:56:58;0.40;;;0.40;;
5507;SDS011;2776;51.046;6.772;2024-03-29T08:59:26;0.60;;;0.40;;
5507;SDS011;2776;51.046;6.772;2024-03-29T09:01:53;0.10;;;0.10;;
5507;SDS011;2776;51.046;6.772;2024-03-29T09:04:20;0.30;;;0.20;;
5507;SDS011;2776;51.046;6.772;2024-03-29T09:06:47;0.53;;;0.30;;
5507;SDS011;2776;51.046;6.772;2024-03-29T09:09:14;0.33;;;0.30;;
5507;SDS011;2776;51.046;6.772;2024-03-29T09:11:41;0.93;;;0.10;;
5507;SDS011;2776;51.046;6.772;2024-03-29T09:14:09;0.20;;;0.20;;
5507;SDS011;2776;51.046;6.772;2024-03-29T09:16:37;0.83;;;0.43;;
5507;SDS011;2776;51.046;6.772;2024-03-29T09:19:05;0.30;;;0.30;;
5507;SDS011;2776;51.046;6.772;2024-03-29T09:21:32;0.30;;;0.20;;
5507;SDS011;2776;51.046;6.772;2024-03-29T09:23:59;0.30;;;0.27;;
5507;SDS011;2776;51.046;6.772;2024-03-29T09:26:25;2.57;;;0.47;;
5507;SDS011;2776;51.046;6.772;2024-03-29T09:28:52;0.20;;;0.20;;
5507;SDS011;2776;51.046;6.772;2024-03-29T09:31:20;1.13;;;0.20;;
5507;SDS011;2776;51.046;6.772;2024-03-29T09:33:47;0.47;;;0.30;;
5507;SDS011;2776;51.046;6.772;2024-03-29T09:36:19;0.20;;;0.20;;
5507;SDS011;2776;51.046;6.772;2024-03-29T09:38:48;0.30;;;0.30;;
5507;SDS011;2776;51.046;6.772;2024-03-29T09:41:15;0.63;;;0.37;;
5507;SDS011;2776;51.046;6.772;2024-03-29T09:43:44;0.60;;;0.23;;
5507;SDS011;2776;51.046;6.772;2024-03-29T09:46:11;0.33;;;0.33;;
5507;SDS011;2776;51.046;6.772;2024-03-29T09:48:40;0.70;;;0.40;;
5507;SDS011;2776;51.046;6.772;2024-03-29T09:51:08;1.67;;;0.40;;
5507;SDS011;2776;51.046;6.772;2024-03-29T09:53:35;0.73;;;0.50;;
5507;SDS011;2776;51.046;6.772;2024-03-29T09:56:03;1.67;;;0.40;;
5507;SDS011;2776;51.046;6.772;2024-03-29T09:58:31;0.87;;;0.50;;
5507;SDS011;2776;51.046;6.772;2024-03-29T10:00:58;1.90;;;0.40;;
5507;SDS011;2776;51.046;6.772;2024-03-29T10:03:25;0.60;;;0.40;;
5507;SDS011;2776;51.046;6.772;2024-03-29T10:05:56;0.37;;;0.37;;
5507;SDS011;2776;51.046;6.772;2024-03-29T10:08:24;0.20;;;0.20;;
5507;SDS011;2776;51.046;6.772;2024-03-29T10:10:52;1.30;;;0.30;;
5507;SDS011;2776;51.046;6.772;2024-03-29T10:13:20;2.10;;;0.20;;
5507;SDS011;2776;51.046;6.772;2024-03-29T10:15:48;0.20;;;0.20;;
5507;SDS011;2776;51.046;6.772;2024-03-29T10:18:17;0.60;;;0.40;;
5507;SDS011;2776;51.046;6.772;2024-03-29T10:20:45;1.30;;;0.20;;
5507;SDS011;2776;51.046;6.772;2024-03-29T10:23:13;0.20;;;0.20;;
5507;SDS011;2776;51.046;6.772;2024-03-29T10:25:42;0.20;;;0.20;;
5507;SDS011;2776;51.046;6.772;2024-03-29T10:28:09;0.43;;;0.40;;
5507;SDS011;2776;51.046;6.772;2024-03-29T10:30:37;0.67;;;0.30;;
5507;SDS011;2776;51.046;6.772;2024-03-29T10:33:04;0.67;;;0.20;;
5507;SDS011;2776;51.046;6.772;2024-03-29T10:35:31;0.40;;;0.30;;
5507;SDS011;2776;51.046;6.772;2024-03-29T10:37:58;0.40;;;0.37;;
5507;SDS011;2776;51.046;6.772;2024-03-29T10:40:29;1.13;;;0.40;;
5507;SDS011;2776;51.046;6.772;2024-03-29T10:42:57;0.43;;;0.40;;
5507;SDS011;2776;51.046;6.772;2024-03-29T10:45:25;1.10;;;0.47;;
5507;SDS011;2776;51.046;6.772;2024-03-29T10:47:53;5.43;;;0.33;;
5507;SDS011;2776;51.046;6.772;2024-03-29T10:50:20;1.47;;;0.50;;
5507;SDS011;2776;51.046;6.772;2024-03-29T10:52:48;0.50;;;0.40;;
5507;SDS011;2776;51.046;6.772;2024-03-29T10:55:15;0.43;;;0.37;;
5507;SDS011;2776;51.046;6.772;2024-03-29T10:57:44;1.27;;;0.30;;
5507;SDS011;2776;51.046;6.772;2024-03-29T11:00:15;1.67;;;0.43;;
5507;SDS011;2776;51.046;6.772;2024-03-29T11:02:47;0.93;;;0.32;;
5507;SDS011;2776;51.046;6.772;2024-03-29T11:05:16;1.03;;;0.60;;
5507;SDS011;2776;51.046;6.772;2024-03-29T11:07:44;1.52;;;0.50;;
5507;SDS011;2776;51.046;6.772;2024-03-29T11:10:13;1.13;;;0.57;;
5507;SDS011;2776;51.046;6.772;2024-03-29T11:12:47;1.13;;;0.40;;
5507;SDS011;2776;51.046;6.772;2024-03-29T11:15:24;0.30;;;0.30;;
5507;SDS011;2776;51.046;6.772;2024-03-29T11:17:54;0.20;;;0.20;;
5507;SDS011;2776;51.046;6.772;2024-03-29T11:20:22;0.65;;;0.20;;
5507;SDS011;2776;51.046;6.772;2024-03-29T11:22:58;0.30;;;0.30;;
5507;SDS011;2776;51.046;6.772;2024-03-29T11:25:36;0.57;;;0.40;;
5507;SDS011;2776;51.046;6.772;2024-03-29T11:28:06;2.03;;;0.30;;
5507;SDS011;2776;51.046;6.772;2024-03-29T11:30:39;0.47;;;0.30;;
5507;SDS011;2776;51.046;6.772;2024-03-29T11:33:07;0.20;;;0.20;;
5507;SDS011;2776;51.046;6.772;2024-03-29T11:35:38;0.60;;;0.50;;
5507;SDS011;2776;51.046;6.772;2024-03-29T11:38:06;0.80;;;0.60;;
5507;SDS011;2776;51.046;6.772;2024-03-29T11:40:32;0.20;;;0.20;;
5507;SDS011;2776;51.046;6.772;2024-03-29T11:42:59;0.50;;;0.40;;
5507;SDS011;2776;51.046;6.772;2024-03-29T11:45:28;1.03;;;0.37;;
5507;SDS011;2776;51.046;6.772;2024-03-29T11:47:58;0.70;;;0.30;;
5507;SDS011;2776;51.046;6.772;2024-03-29T11:50:29;0.20;;;0.20;;
5507;SDS011;2776;51.046;6.772;2024-03-29T11:52:56;0.63;;;0.20;;
5507;SDS011;2776;51.046;6.772;2024-03-29T11:55:22;1.13;;;0.40;;
5507;SDS011;2776;51.046;6.772;2024-03-29T11:57:51;0.30;;;0.20;;
5507;SDS011;2776;51.046;6.772;2024-03-29T12:00:18;3.60;;;0.40;;
5507;SDS011;2776;51.046;6.772;2024-03-29T12:02:46;0.73;;;0.13;;
5507;SDS011;2776;51.046;6.772;2024-03-29T12:05:14;0.47;;;0.20;;
5507;SDS011;2776;51.046;6.772;2024-03-29T12:07:41;0.40;;;0.20;;
5507;SDS011;2776;51.046;6.772;2024-03-29T12:10:08;0.97;;;0.20;;
5507;SDS011;2776;51.046;6.772;2024-03-29T12:12:36;0.30;;;0.23;;
5507;SDS011;2776;51.046;6.772;2024-03-29T12:15:03;0.37;;;0.37;;
5507;SDS011;2776;51.046;6.772;2024-03-29T12:17:30;0.80;;;0.37;;
5507;SDS011;2776;51.046;6.772;2024-03-29T12:19:59;0.27;;;0.20;;
5507;SDS011;2776;51.046;6.772;2024-03-29T12:22:30;0.53;;;0.23;;
5507;SDS011;2776;51.046;6.772;2024-03-29T12:24:57;0.30;;;0.30;;
5507;SDS011;2776;51.046;6.772;2024-03-29T12:27:24;0.57;;;0.27;;
5507;SDS011;2776;51.046;6.772;2024-03-29T12:29:51;0.10;;;0.10;;
5507;SDS011;2776;51.046;6.772;2024-03-29T12:32:18;0.77;;;0.47;;
5507;SDS011;2776;51.046;6.772;2024-03-29T12:34:45;0.30;;;0.30;;
5507;SDS011;2776;51.046;6.772;2024-03-29T12:37:13;0.20;;;0.20;;
5507;SDS011;2776;51.046;6.772;2024-03-29T12:39:41;0.33;;;0.20;;
5507;SDS011;2776;51.046;6.772;2024-03-29T12:42:08;0.30;;;0.30;;
5507;SDS011;2776;51.046;6.772;2024-03-29T12:44:36;1.07;;;0.30;;
5507;SDS011;2776;51.046;6.772;2024-03-29T12:47:03;0.20;;;0.20;;
5507;SDS011;2776;51.046;6.772;2024-03-29T12:49:30;0.20;;;0.20;;
5507;SDS011;2776;51.046;6.772;2024-03-29T12:51:56;0.10;;;0.10;;
5507;SDS011;2776;51.046;6.772;2024-03-29T12:54:24;0.57;;;0.20;;
5507;SDS011;2776;51.046;6.772;2024-03-29T12:56:52;0.20;;;0.10;;
5507;SDS011;2776;51.046;6.772;2024-03-29T12:59:19;0.30;;;0.30;;
5507;SDS011;2776;51.046;6.772;2024-03-29T13:01:47;0.47;;;0.30;;
5507;SDS011;2776;51.046;6.772;2024-03-29T13:04:13;0.60;;;0.10;;
5507;SDS011;2776;51.046;6.772;2024-03-29T13:06:40;0.13;;;0.13;;
5507;SDS011;2776;51.046;6.772;2024-03-29T13:09:07;0.10;;;0.10;;
5507;SDS011;2776;51.046;6.772;2024-03-29T13:11:35;0.40;;;0.10;;
5507;SDS011;2776;51.046;6.772;2024-03-29T13:14:02;0.10;;;0.10;;
5507;SDS011;2776;51.046;6.772;2024-03-29T13:16:30;0.33;;;0.10;;
5507;SDS011;2776;51.046;6.772;2024-03-29T13:18:56;0.10;;;0.10;;
5507;SDS011;2776;51.046;6.772;2024-03-29T13:21:24;0.10;;;0.10;;
5507;SDS011;2776;51.046;6.772;2024-03-29T13:23:50;0.53;;;0.30;;
5507;SDS011;2776;51.046;6.772;2024-03-29T13:26:17;0.40;;;0.20;;
5507;SDS011;2776;51.046;6.772;2024-03-29T13:28:45;0.75;;;0.47;;
5507;SDS011;2776;51.046;6.772;2024-03-29T13:31:12;0.30;;;0.20;;
5507;SDS011;2776;51.046;6.772;2024-03-29T13:33:39;0.30;;;0.20;;
5507;SDS011;2776;51.046;6.772;2024-03-29T13:36:06;0.10;;;0.10;;
5507;SDS011;2776;51.046;6.772;2024-03-29T13:38:33;0.33;;;0.10;;
5507;SDS011;2776;51.046;6.772;2024-03-29T13:41:00;0.20;;;0.20;;
5507;SDS011;2776;51.046;6.772;2024-03-29T13:43:28;0.00;;;0.00;;
5507;SDS011;2776;51.046;6.772;2024-03-29T13:45:56;0.10;;;0.10;;
5507;SDS011;2776;51.046;6.772;2024-03-29T13:48:24;0.23;;;0.23;;
5507;SDS011;2776;51.046;6.772;2024-03-29T13:50:50;0.20;;;0.20;;
5507;SDS011;2776;51.046;6.772;2024-03-29T13:53:17;0.10;;;0.10;;
5507;SDS011;2776;51.046;6.772;2024-03-29T13:55:44;1.13;;;0.10;;
5507;SDS011;2776;51.046;6.772;2024-03-29T13:58:11;0.40;;;0.20;;
5507;SDS011;2776;51.046;6.772;2024-03-29T14:00:37;0.10;;;0.10;;
5507;SDS011;2776;51.046;6.772;2024-03-29T14:03:05;0.20;;;0.20;;
5507;SDS011;2776;51.046;6.772;2024-03-29T14:05:32;0.17;;;0.17;;
5507;SDS011;2776;51.046;6.772;2024-03-29T14:07:59;0.23;;;0.20;;
5507;SDS011;2776;51.046;6.772;2024-03-29T14:10:26;0.10;;;0.10;;
5507;SDS011;2776;51.046;6.772;2024-03-29T14:12:52;0.10;;;0.10;;
5507;SDS011;2776;51.046;6.772;2024-03-29T14:15:20;0.10;;;0.10;;
5507;SDS011;2776;51.046;6.772;2024-03-29T14:17:46;0.93;;;0.20;;
5507;SDS011;2776;51.046;6.772;2024-03-29T14:20:14;0.10;;;0.10;;
5507;SDS011;2776;51.046;6.772;2024-03-29T14:22:41;0.10;;;0.10;;
5507;SDS011;2776;51.046;6.772;2024-03-29T14:25:08;0.10;;;0.10;;
5507;SDS011;2776;51.046;6.772;2024-03-29T14:27:35;0.10;;;0.10;;
5507;SDS011;2776;51.046;6.772;2024-03-29T14:30:11;0.23;;;0.23;;
5507;SDS011;2776;51.046;6.772;2024-03-29T14:32:39;0.10;;;0.10;;
5507;SDS011;2776;51.046;6.772;2024-03-29T14:35:07;0.10;;;0.10;;
5507;SDS011;2776;51.046;6.772;2024-03-29T14:37:37;0.10;;;0.10;;
5507;SDS011;2776;51.046;6.772;2024-03-29T14:40:04;0.23;;;0.20;;
5507;SDS011;2776;51.046;6.772;2024-03-29T14:42:32;0.10;;;0.10;;
5507;SDS011;2776;51.046;6.772;2024-03-29T14:45:01;0.10;;;0.10;;
5507;SDS011;2776;51.046;6.772;2024-03-29T14:47:27;0.63;;;0.30;;
5507;SDS011;2776;51.046;6.772;2024-03-29T14:49:54;0.10;;;0.10;;
5507;SDS011;2776;51.046;6.772;2024-03-29T14:52:21;0.20;;;0.20;;
5507;SDS011;2776;51.046;6.772;2024-03-29T14:54:49;0.20;;;0.20;;
5507;SDS011;2776;51.046;6.772;2024-03-29T14:57:16;0.07;;;0.00;;
5507;SDS011;2776;51.046;6.772;2024-03-29T14:59:44;0.50;;;0.50;;
5507;SDS011;2776;51.046;6.772;2024-03-29T15:02:11;2.00;;;0.20;;
5507;SDS011;2776;51.046;6.772;2024-03-29T15:04:37;0.27;;;0.27;;
5507;SDS011;2776;51.046;6.772;2024-03-29T15:07:04;0.30;;;0.30;;
5507;SDS011;2776;51.046;6.772;2024-03-29T15:09:31;0.23;;;0.23;;
5507;SDS011;2776;51.046;6.772;2024-03-29T15:12:01;0.37;;;0.37;;
5507;SDS011;2776;51.046;6.772;2024-03-29T15:14:28;1.47;;;0.10;;
5507;SDS011;2776;51.046;6.772;2024-03-29T15:16:55;0.43;;;0.40;;